createdAt,value
2018-08-09T00:00:51.744Z,10.57
2018-08-09T00:03:20.706Z,10.30
2018-08-09T00:05:49.568Z,10.97
2018-08-09T00:08:18.518Z,11.00
2018-08-09T00:10:47.433Z,11.33
2018-08-09T00:13:16.444Z,11.17
2018-08-09T00:15:45.306Z,10.43
2018-08-09T00:18:14.093Z,11.33
2018-08-09T00:20:43.016Z,11.53
2018-08-09T00:23:11.898Z,11.70
2018-08-09T00:25:40.740Z,11.93
2018-08-09T00:28:09.680Z,12.20
2018-08-09T00:30:38.740Z,12.50
2018-08-09T00:33:07.688Z,13.20
2018-08-09T00:35:36.714Z,12.47
2018-08-09T00:38:05.555Z,13.37
2018-08-09T00:40:34.554Z,12.43
2018-08-09T00:43:03.487Z,12.00
2018-08-09T00:45:32.672Z,11.97
2018-08-09T00:48:01.534Z,11.40
2018-08-09T00:50:30.409Z,12.67
2018-08-09T00:52:59.526Z,11.80
2018-08-09T00:55:28.444Z,12.77
2018-08-09T00:57:57.301Z,12.20
2018-08-09T01:00:26.249Z,11.60
2018-08-09T01:02:55.163Z,11.23
2018-08-09T01:05:24.017Z,12.43
2018-08-09T01:07:53.037Z,10.30
2018-08-09T01:10:21.841Z,12.00
2018-08-09T01:12:50.423Z,10.77
2018-08-09T01:15:19.356Z,10.67
2018-08-09T01:17:48.231Z,10.13
2018-08-09T01:20:17.120Z,10.73
2018-08-09T01:22:45.790Z,10.20
2018-08-09T01:25:14.801Z,9.63
2018-08-09T01:27:43.737Z,10.90
2018-08-09T01:30:12.694Z,9.87
2018-08-09T01:32:41.768Z,10.17
2018-08-09T01:35:10.697Z,9.53
2018-08-09T01:37:39.876Z,10.40
2018-08-09T01:40:08.778Z,10.23
2018-08-09T01:42:48.419Z,11.13
2018-08-09T01:45:17.537Z,9.57
2018-08-09T01:47:46.554Z,10.27
2018-08-09T01:50:15.350Z,10.13
2018-08-09T01:52:44.723Z,10.53
2018-08-09T01:55:13.661Z,10.83
2018-08-09T01:57:42.806Z,10.07
2018-08-09T02:00:11.573Z,10.50
2018-08-09T02:02:40.399Z,11.00
2018-08-09T02:05:10.036Z,10.27
2018-08-09T02:07:39.047Z,10.50
2018-08-09T02:10:08.209Z,11.43
2018-08-09T02:12:37.267Z,10.03
2018-08-09T02:15:06.260Z,10.80
2018-08-09T02:17:35.172Z,11.43
2018-08-09T02:20:04.359Z,10.43
2018-08-09T02:22:33.431Z,11.00
2018-08-09T02:25:02.357Z,10.50
2018-08-09T02:27:31.234Z,11.30
2018-08-09T02:30:00.352Z,10.10
2018-08-09T02:32:29.386Z,10.10
2018-08-09T02:34:58.218Z,10.33
2018-08-09T02:37:27.116Z,8.73
2018-08-09T02:39:56.238Z,9.60
2018-08-09T02:42:24.905Z,8.70
2018-08-09T02:44:53.937Z,9.30
2018-08-09T02:47:22.876Z,9.80
2018-08-09T02:49:51.722Z,9.83
2018-08-09T02:52:20.630Z,9.80
2018-08-09T02:54:49.567Z,10.63
2018-08-09T02:57:18.408Z,10.13
2018-08-09T02:59:47.680Z,10.13
2018-08-09T03:02:16.971Z,9.87
2018-08-09T03:04:45.959Z,9.33
2018-08-09T03:07:14.887Z,10.50
2018-08-09T03:09:43.841Z,10.40
2018-08-09T03:12:12.804Z,9.60
2018-08-09T03:14:41.637Z,10.80
2018-08-09T03:17:10.703Z,10.07
2018-08-09T03:19:39.523Z,10.40
2018-08-09T03:22:08.301Z,9.70
2018-08-09T03:24:37.239Z,9.23
2018-08-09T03:27:06.066Z,10.10
2018-08-09T03:29:34.862Z,10.60
2018-08-09T03:32:03.613Z,9.63
2018-08-09T03:34:32.674Z,9.00
2018-08-09T03:37:01.819Z,9.50
2018-08-09T03:39:30.653Z,10.20
2018-08-09T03:41:59.633Z,8.80
2018-08-09T03:44:28.443Z,10.10
2018-08-09T03:46:57.420Z,9.20
2018-08-09T03:49:26.506Z,9.60
2018-08-09T03:51:55.504Z,9.90
2018-08-09T03:54:24.341Z,10.13
2018-08-09T03:56:53.307Z,9.50
2018-08-09T03:59:22.000Z,9.83
2018-08-09T04:01:50.976Z,9.13
2018-08-09T04:04:19.886Z,9.47
2018-08-09T04:06:48.885Z,9.73
2018-08-09T04:09:17.979Z,9.60
2018-08-09T04:11:46.979Z,10.27
2018-08-09T04:14:16.066Z,9.50
2018-08-09T04:16:45.041Z,10.83
2018-08-09T04:19:13.830Z,9.33
2018-08-09T04:21:42.593Z,10.80
2018-08-09T04:24:11.529Z,10.27
2018-08-09T04:26:40.657Z,10.57
2018-08-09T04:29:09.654Z,10.27
2018-08-09T04:31:38.486Z,10.33
2018-08-09T04:34:07.387Z,10.10
2018-08-09T04:36:36.505Z,10.23
2018-08-09T04:39:07.742Z,9.23
2018-08-09T04:41:37.339Z,10.03
2018-08-09T04:44:06.405Z,9.60
2018-08-09T04:46:35.236Z,9.87
2018-08-09T04:49:04.250Z,10.10
2018-08-09T04:51:33.237Z,11.67
2018-08-09T04:54:02.262Z,10.83
2018-08-09T04:56:31.069Z,10.93
2018-08-09T04:59:00.032Z,10.87
2018-08-09T05:01:29.037Z,12.93
2018-08-09T05:03:57.856Z,13.43
2018-08-09T05:06:26.817Z,13.60
2018-08-09T05:08:55.534Z,14.23
2018-08-09T05:11:24.528Z,12.50
2018-08-09T05:13:53.318Z,14.87
2018-08-09T05:16:22.169Z,14.73
2018-08-09T05:18:50.827Z,13.97
2018-08-09T05:21:19.782Z,12.53
2018-08-09T05:23:48.822Z,12.70
2018-08-09T05:26:17.607Z,12.00
2018-08-09T05:28:46.549Z,12.13
2018-08-09T05:31:15.501Z,11.30
2018-08-09T05:33:44.349Z,11.27
2018-08-09T05:36:13.173Z,12.77
2018-08-09T05:38:42.040Z,11.67
2018-08-09T05:41:10.968Z,11.63
2018-08-09T05:43:39.934Z,11.47
2018-08-09T05:46:08.872Z,11.70
2018-08-09T05:48:37.593Z,12.90
2018-08-09T05:51:06.567Z,11.67
2018-08-09T05:53:35.272Z,10.47
2018-08-09T05:56:04.284Z,11.53
2018-08-09T05:58:33.376Z,11.47
2018-08-09T06:01:02.132Z,11.47
2018-08-09T06:03:31.199Z,12.17
2018-08-09T06:06:00.161Z,12.57
2018-08-09T06:08:29.262Z,12.83
2018-08-09T06:10:58.359Z,12.57
2018-08-09T06:13:27.252Z,13.27
2018-08-09T06:15:56.213Z,13.03
2018-08-09T06:18:25.228Z,13.40
2018-08-09T06:20:54.500Z,12.00
2018-08-09T06:23:23.309Z,13.00
2018-08-09T06:25:52.402Z,13.73
2018-08-09T06:28:21.218Z,13.93
2018-08-09T06:30:49.972Z,14.20
2018-08-09T06:33:19.067Z,14.87
2018-08-09T06:35:47.857Z,13.77
2018-08-09T06:38:17.082Z,14.87
2018-08-09T06:40:46.251Z,13.67
2018-08-09T06:43:15.258Z,15.83
2018-08-09T06:45:44.603Z,14.30
2018-08-09T06:48:13.821Z,13.70
2018-08-09T06:50:42.957Z,14.53
2018-08-09T06:53:11.823Z,14.53
2018-08-09T06:55:40.748Z,14.33
2018-08-09T06:58:09.839Z,14.90
2018-08-09T07:00:38.664Z,13.63
2018-08-09T07:03:07.671Z,16.10
2018-08-09T07:05:36.594Z,13.03
2018-08-09T07:08:05.379Z,12.50
2018-08-09T07:10:34.311Z,14.57
2018-08-09T07:13:03.148Z,13.53
2018-08-09T07:15:32.287Z,11.83
2018-08-09T07:18:01.485Z,10.70
2018-08-09T07:20:30.478Z,13.40
2018-08-09T07:22:59.466Z,13.73
2018-08-09T07:25:28.188Z,13.60
2018-08-09T07:27:57.198Z,12.17
2018-08-09T07:30:26.249Z,9.10
2018-08-09T07:32:55.124Z,8.40
2018-08-09T07:35:24.113Z,14.43
2018-08-09T07:37:53.139Z,13.83
2018-08-09T07:40:21.837Z,11.10
2018-08-09T07:42:50.873Z,9.33
2018-08-09T07:45:19.694Z,8.50
2018-08-09T07:47:48.681Z,7.97
2018-08-09T07:50:17.592Z,6.83
2018-08-09T07:52:46.271Z,6.90
2018-08-09T07:55:15.509Z,6.10
2018-08-09T07:57:44.662Z,6.97
2018-08-09T08:00:13.556Z,6.60
2018-08-09T08:02:42.669Z,7.97
2018-08-09T08:05:11.720Z,7.43
2018-08-09T08:07:40.533Z,8.53
2018-08-09T08:10:10.367Z,7.23
2018-08-09T08:12:39.277Z,8.67
2018-08-09T08:15:09.265Z,10.10
2018-08-09T08:17:38.245Z,10.50
2018-08-09T08:20:07.730Z,10.20
2018-08-09T08:22:36.749Z,10.53
2018-08-09T08:25:06.079Z,9.93
2018-08-09T08:27:35.121Z,10.70
2018-08-09T08:30:05.713Z,9.00
2018-08-09T08:32:34.613Z,8.83
2018-08-09T08:35:03.607Z,8.83
2018-08-09T08:37:32.794Z,8.43
2018-08-09T08:40:01.801Z,9.70
2018-08-09T08:42:30.837Z,9.27
2018-08-09T08:44:59.737Z,8.60
2018-08-09T08:47:28.781Z,9.10
2018-08-09T08:49:57.687Z,8.90
2018-08-09T08:52:26.498Z,8.17
2018-08-09T08:54:55.540Z,8.00
2018-08-09T08:57:24.496Z,7.25
2018-08-09T08:59:53.404Z,7.13
2018-08-09T09:02:22.367Z,7.47
2018-08-09T09:04:51.064Z,8.20
2018-08-09T09:07:20.090Z,7.97
2018-08-09T09:09:48.962Z,7.80
2018-08-09T09:12:17.694Z,7.17
2018-08-09T09:14:46.630Z,8.00
2018-08-09T09:17:15.502Z,7.43
2018-08-09T09:19:44.566Z,8.93
2018-08-09T09:22:13.674Z,7.40
2018-08-09T09:24:42.625Z,8.17
2018-08-09T09:29:39.644Z,8.00
2018-08-09T09:32:08.543Z,8.70
2018-08-09T09:34:37.445Z,7.77
2018-08-09T09:37:06.265Z,8.10
2018-08-09T09:39:35.241Z,8.40
2018-08-09T09:42:04.213Z,8.13
2018-08-09T09:44:33.267Z,6.93
2018-08-09T09:47:02.211Z,6.50
2018-08-09T09:49:31.093Z,6.00
2018-08-09T09:51:59.927Z,7.10
2018-08-09T09:54:28.944Z,6.73
2018-08-09T09:56:57.629Z,6.20
2018-08-09T09:59:26.571Z,6.30
2018-08-09T10:01:55.468Z,6.77
2018-08-09T10:04:24.533Z,6.13
2018-08-09T10:06:53.195Z,6.60
2018-08-09T10:09:22.198Z,6.40
2018-08-09T10:11:51.035Z,5.90
2018-08-09T10:14:20.005Z,7.03
2018-08-09T10:16:48.960Z,6.80
2018-08-09T10:19:17.887Z,6.70
2018-08-09T10:21:46.785Z,6.10
2018-08-09T10:24:15.787Z,5.70
2018-08-09T10:26:44.589Z,6.13
2018-08-09T10:29:13.513Z,6.97
2018-08-09T10:31:42.460Z,6.50
2018-08-09T10:34:11.416Z,6.07
2018-08-09T10:36:40.223Z,6.10
2018-08-09T10:39:11.030Z,6.20
2018-08-09T10:41:40.169Z,6.13
2018-08-09T10:44:09.016Z,6.03
2018-08-09T10:46:38.091Z,6.30
2018-08-09T10:49:07.144Z,6.50
2018-08-09T10:51:35.829Z,6.00
2018-08-09T10:54:05.059Z,5.90
2018-08-09T10:56:34.041Z,6.70
2018-08-09T10:59:03.034Z,6.80
2018-08-09T11:01:31.892Z,6.70
2018-08-09T11:04:00.958Z,6.70
2018-08-09T11:06:29.782Z,6.77
2018-08-09T11:08:58.579Z,7.23
2018-08-09T11:11:27.423Z,7.50
2018-08-09T11:13:56.539Z,7.13
2018-08-09T11:16:25.381Z,7.20
2018-08-09T11:18:54.320Z,7.17
2018-08-09T11:21:23.221Z,6.80
2018-08-09T11:23:52.478Z,6.77
2018-08-09T11:26:21.542Z,7.10
2018-08-09T11:28:50.429Z,7.13
2018-08-09T11:31:19.274Z,6.80
2018-08-09T11:33:49.164Z,7.10
2018-08-09T11:36:19.538Z,6.20
2018-08-09T11:38:48.789Z,6.10
2018-08-09T11:41:17.956Z,7.07
2018-08-09T11:43:46.892Z,6.47
2018-08-09T11:46:16.399Z,6.40
2018-08-09T11:48:45.349Z,7.37
2018-08-09T11:51:14.300Z,6.50
2018-08-09T11:53:43.187Z,6.90
2018-08-09T11:56:12.195Z,5.97
2018-08-09T11:58:40.932Z,5.80
2018-08-09T12:01:09.802Z,6.67
2018-08-09T12:03:40.236Z,6.87
2018-08-09T12:06:09.098Z,6.93
2018-08-09T12:08:37.921Z,7.10
2018-08-09T12:11:06.929Z,7.00
2018-08-09T12:13:35.778Z,7.67
2018-08-09T12:16:04.984Z,7.13
2018-08-09T12:18:34.047Z,6.50
2018-08-09T12:21:02.951Z,6.20
2018-08-09T12:23:31.909Z,7.17
2018-08-09T12:26:01.077Z,7.23
2018-08-09T12:28:29.941Z,7.23
2018-08-09T12:30:58.779Z,6.93
2018-08-09T12:33:27.569Z,7.07
2018-08-09T12:35:56.699Z,7.70
2018-08-09T12:38:25.640Z,6.87
2018-08-09T12:40:54.853Z,6.83
2018-08-09T12:43:24.069Z,7.00
2018-08-09T12:45:53.054Z,6.70
2018-08-09T12:48:22.037Z,6.40
2018-08-09T12:50:50.995Z,5.97
2018-08-09T12:53:19.811Z,6.83
2018-08-09T12:55:48.757Z,6.50
2018-08-09T12:58:17.757Z,6.10
2018-08-09T13:00:46.546Z,5.50
2018-08-09T13:03:15.501Z,5.57
2018-08-09T13:05:44.361Z,5.70
2018-08-09T13:08:13.533Z,5.77
2018-08-09T13:10:42.928Z,6.28
2018-08-09T13:13:11.951Z,5.70
2018-08-09T13:15:40.847Z,7.00
2018-08-09T13:18:09.809Z,6.40
2018-08-09T13:20:38.835Z,5.27
2018-08-09T13:23:07.713Z,5.23
2018-08-09T13:25:36.709Z,5.47
2018-08-09T13:28:05.965Z,4.70
2018-08-09T13:30:35.067Z,5.57
2018-08-09T13:33:04.254Z,5.50
2018-08-09T13:35:33.174Z,6.23
2018-08-09T13:38:02.171Z,5.50
2018-08-09T13:40:31.069Z,6.37
2018-08-09T13:43:00.066Z,7.00
2018-08-09T13:45:29.032Z,6.17
2018-08-09T13:47:58.048Z,7.10
2018-08-09T13:50:26.949Z,7.00
2018-08-09T13:52:55.744Z,6.00
2018-08-09T13:55:24.616Z,5.60
2018-08-09T13:57:53.403Z,5.63
2018-08-09T14:00:22.441Z,5.47
2018-08-09T14:02:51.522Z,5.10
2018-08-09T14:05:20.475Z,5.73
2018-08-09T14:07:49.309Z,5.70
2018-08-09T14:10:18.294Z,5.70
2018-08-09T14:12:47.273Z,5.37
2018-08-09T14:15:16.390Z,6.60
2018-08-09T14:17:45.426Z,5.73
2018-08-09T14:20:17.662Z,6.20
2018-08-09T14:22:46.831Z,6.30
2018-08-09T14:25:16.154Z,5.40
2018-08-09T14:27:45.045Z,6.20
2018-08-09T14:30:15.244Z,6.17
2018-08-09T14:32:45.101Z,6.40
2018-08-09T14:35:15.429Z,7.00
2018-08-09T14:37:45.131Z,6.20
2018-08-09T14:40:14.706Z,5.73
2018-08-09T14:42:43.749Z,5.70
2018-08-09T14:45:14.401Z,6.20
2018-08-09T14:47:43.646Z,6.00
2018-08-09T14:50:12.385Z,6.07
2018-08-09T14:52:41.429Z,7.10
2018-08-09T14:55:11.843Z,6.60
2018-08-09T14:57:41.188Z,7.17
2018-08-09T15:00:14.997Z,5.90
2018-08-09T15:02:44.927Z,5.70
2018-08-09T15:05:14.311Z,5.87
2018-08-09T15:07:43.750Z,6.20
2018-08-09T15:10:13.012Z,5.87
2018-08-09T15:12:42.003Z,6.12
2018-08-09T15:15:12.115Z,5.73
2018-08-09T15:17:41.281Z,5.70
2018-08-09T15:20:11.934Z,5.57
2018-08-09T15:22:41.188Z,6.07
2018-08-09T15:25:10.688Z,6.17
2018-08-09T15:27:39.680Z,5.00
2018-08-09T15:30:15.528Z,5.90
2018-08-09T15:32:44.625Z,5.67
2018-08-09T15:35:13.876Z,5.10
2018-08-09T15:37:42.641Z,5.20
2018-08-09T15:40:12.300Z,5.00
2018-08-09T15:42:41.358Z,4.83
2018-08-09T15:45:11.909Z,5.00
2018-08-09T15:47:41.404Z,5.30
2018-08-09T15:50:13.514Z,5.87
2018-08-09T15:52:42.778Z,4.70
2018-08-09T15:55:12.113Z,4.80
2018-08-09T15:57:41.002Z,5.00
2018-08-09T16:00:17.495Z,4.70
2018-08-09T16:02:46.870Z,5.27
2018-08-09T16:05:15.935Z,5.20
2018-08-09T16:07:45.010Z,10.40
2018-08-09T16:10:15.196Z,8.97
2018-08-09T16:12:44.559Z,6.47
2018-08-09T16:15:15.585Z,4.97
2018-08-09T16:17:45.508Z,5.10
2018-08-09T16:20:14.433Z,4.60
2018-08-09T16:22:44.283Z,4.70
2018-08-09T16:25:15.332Z,4.43
2018-08-09T16:27:44.369Z,4.37
2018-08-09T16:30:22.097Z,4.40
2018-08-09T16:32:51.119Z,3.90
2018-08-09T16:35:20.355Z,5.70
2018-08-09T16:37:49.870Z,5.37
2018-08-09T16:40:23.279Z,3.70
2018-08-09T16:42:52.569Z,4.20
2018-08-09T16:45:22.349Z,5.20
2018-08-09T16:47:52.092Z,7.05
2018-08-09T16:50:22.539Z,6.77
2018-08-09T16:52:52.159Z,7.40
2018-08-09T16:55:22.237Z,7.00
2018-08-09T16:57:51.164Z,8.37
2018-08-09T17:00:21.439Z,5.47
2018-08-09T17:02:50.824Z,5.50
2018-08-09T17:05:20.909Z,4.93
2018-08-09T17:07:50.052Z,5.63
2018-08-09T17:10:22.028Z,5.70
2018-08-09T17:12:51.348Z,5.83
2018-08-09T17:15:25.306Z,6.60
2018-08-09T17:17:54.790Z,6.37
2018-08-09T17:20:28.785Z,5.27
2018-08-09T17:22:58.169Z,4.80
2018-08-09T17:25:27.194Z,6.43
2018-08-09T17:27:56.387Z,6.17
2018-08-09T17:30:26.787Z,5.90
2018-08-09T17:32:56.459Z,5.17
2018-08-09T17:35:25.957Z,5.33
2018-08-09T17:37:55.014Z,5.07
2018-08-09T17:40:26.520Z,5.03
2018-08-09T17:42:55.970Z,4.20
2018-08-09T17:45:28.721Z,4.90
2018-08-09T17:47:57.833Z,4.80
2018-08-09T17:50:26.868Z,4.33
2018-08-09T17:52:57.276Z,3.80
2018-08-09T17:55:26.236Z,4.43
2018-08-09T17:57:55.097Z,8.17
2018-08-09T18:00:26.867Z,6.37
2018-08-09T18:02:56.076Z,6.53
2018-08-09T18:05:25.197Z,6.90
2018-08-09T18:07:54.693Z,6.10
2018-08-09T18:10:26.212Z,7.00
2018-08-09T18:12:55.475Z,6.27
2018-08-09T18:15:25.587Z,6.00
2018-08-09T18:17:54.758Z,4.80
2018-08-09T18:20:25.983Z,3.93
2018-08-09T18:22:55.021Z,3.83
2018-08-09T18:25:23.961Z,4.30
2018-08-09T18:27:53.357Z,3.67
2018-08-09T18:30:22.390Z,4.63
2018-08-09T18:32:51.540Z,3.40
2018-08-09T18:35:20.811Z,3.17
2018-08-09T18:37:49.786Z,2.67
2018-08-09T18:40:21.445Z,3.50
2018-08-09T18:42:51.550Z,2.90
2018-08-09T18:45:20.926Z,2.73
2018-08-09T18:47:49.764Z,3.00
2018-08-09T18:50:21.269Z,2.90
2018-08-09T18:52:50.520Z,3.10
2018-08-09T18:55:20.060Z,3.50
2018-08-09T18:57:49.446Z,2.53
2018-08-09T19:00:24.906Z,3.30
2018-08-09T19:02:54.206Z,3.03
2018-08-09T19:05:23.212Z,3.10
2018-08-09T19:07:57.695Z,3.57
2018-08-09T19:10:28.965Z,3.60
2018-08-09T19:12:57.827Z,3.23
2018-08-09T19:15:26.661Z,3.77
2018-08-09T19:17:55.456Z,3.30
2018-08-09T19:20:28.130Z,3.20
2018-08-09T19:22:57.297Z,3.10
2018-08-09T19:25:26.169Z,2.73
2018-08-09T19:27:55.089Z,3.37
2018-08-09T19:30:25.665Z,3.23
2018-08-09T19:32:54.474Z,3.60
2018-08-09T19:35:23.856Z,4.00
2018-08-09T19:37:52.698Z,3.07
2018-08-09T19:40:22.762Z,3.30
2018-08-09T19:42:51.570Z,3.57
2018-08-09T19:45:20.750Z,3.57
2018-08-09T19:47:49.612Z,3.73
2018-08-09T19:50:19.903Z,3.80
2018-08-09T19:52:48.660Z,3.53
2018-08-09T19:55:19.556Z,4.03
2018-08-09T19:57:49.161Z,3.53
2018-08-09T20:00:19.655Z,3.63
2018-08-09T20:02:49.064Z,3.60
2018-08-09T20:05:17.903Z,3.33
2018-08-09T20:07:46.793Z,3.80
2018-08-09T20:10:15.868Z,3.50
2018-08-09T20:12:45.849Z,3.57
2018-08-09T20:15:16.932Z,4.03
2018-08-09T20:17:45.925Z,3.40
2018-08-09T20:20:15.830Z,3.97
2018-08-09T20:22:44.827Z,4.10
2018-08-09T20:25:14.437Z,4.27
2018-08-09T20:27:44.062Z,3.50
2018-08-09T20:30:14.838Z,3.80
2018-08-09T20:32:44.282Z,4.07
2018-08-09T20:35:19.793Z,3.40
2018-08-09T20:37:48.998Z,3.73
2018-08-09T20:40:18.436Z,4.40
2018-08-09T20:42:48.552Z,3.97
2018-08-09T20:45:18.715Z,4.10
2018-08-09T20:47:47.651Z,4.23
2018-08-09T20:50:18.786Z,4.00
2018-08-09T20:52:50.079Z,4.33
2018-08-09T20:55:41.142Z,4.20
2018-08-09T20:58:16.189Z,4.73
2018-08-09T21:00:46.616Z,3.90
2018-08-09T21:03:15.975Z,4.20
2018-08-09T21:05:44.898Z,4.50
2018-08-09T21:08:13.816Z,4.27
2018-08-09T21:10:42.723Z,4.60
2018-08-09T21:13:11.664Z,4.20
2018-08-09T21:15:40.676Z,4.40
2018-08-09T21:18:09.831Z,4.30
2018-08-09T21:20:38.637Z,4.70
2018-08-09T21:23:07.671Z,4.20
2018-08-09T21:25:36.659Z,4.40
2018-08-09T21:28:05.544Z,4.20
2018-08-09T21:30:34.665Z,4.47
2018-08-09T21:33:03.608Z,4.97
2018-08-09T21:35:32.719Z,4.40
2018-08-09T21:38:01.694Z,4.40
2018-08-09T21:40:30.750Z,5.40
2018-08-09T21:42:59.362Z,4.60
2018-08-09T21:45:28.234Z,4.40
2018-08-09T21:47:57.199Z,5.07
2018-08-09T21:50:26.239Z,4.53
2018-08-09T21:52:55.144Z,5.20
2018-08-09T21:55:24.103Z,4.90
2018-08-09T21:57:53.072Z,4.40
2018-08-09T22:00:59.617Z,4.47
2018-08-09T22:03:30.695Z,4.70
2018-08-09T22:06:05.055Z,4.80
2018-08-09T22:08:38.966Z,4.50
2018-08-09T22:11:13.971Z,4.40
2018-08-09T22:13:48.059Z,4.40
2018-08-09T22:16:22.370Z,3.90
2018-08-09T22:18:56.500Z,4.30
2018-08-09T22:21:30.821Z,4.53
2018-08-09T22:23:59.997Z,4.67
2018-08-09T22:26:28.959Z,4.23
2018-08-09T22:28:57.864Z,3.93
2018-08-09T22:31:26.932Z,3.80
2018-08-09T22:33:55.896Z,4.40
2018-08-09T22:36:24.721Z,4.70
2018-08-09T22:38:53.660Z,3.97
2018-08-09T22:41:22.858Z,3.97
2018-08-09T22:43:51.812Z,4.57
2018-08-09T22:46:20.836Z,4.20
2018-08-09T22:48:49.983Z,4.07
2018-08-09T22:51:18.807Z,3.80
2018-08-09T22:53:47.841Z,3.50
2018-08-09T22:56:16.785Z,4.10
2018-08-09T22:58:45.751Z,3.90
2018-08-09T23:01:15.299Z,3.80
2018-08-09T23:03:44.222Z,4.23
2018-08-09T23:06:13.409Z,4.70
2018-08-09T23:08:42.517Z,4.23
2018-08-09T23:11:11.309Z,3.73
2018-08-09T23:13:40.385Z,3.67
2018-08-09T23:16:09.549Z,3.70
2018-08-09T23:18:38.611Z,4.50
2018-08-09T23:21:07.605Z,3.97
2018-08-09T23:23:36.508Z,4.03
2018-08-09T23:26:05.583Z,4.47
2018-08-09T23:28:34.735Z,3.80
2018-08-09T23:31:03.874Z,3.50
2018-08-09T23:33:32.829Z,4.00
2018-08-09T23:36:02.008Z,4.40
2018-08-09T23:38:30.861Z,4.20
2018-08-09T23:40:59.755Z,4.00
2018-08-09T23:43:28.489Z,3.67
2018-08-09T23:45:57.430Z,4.30
2018-08-09T23:48:26.464Z,4.07
2018-08-09T23:50:55.309Z,4.03
2018-08-09T23:53:24.154Z,4.07
2018-08-09T23:55:53.152Z,4.10
2018-08-09T23:58:22.066Z,4.33
